CMM5131 SKAR-SKBQ
Flight info
| Callsign | CMM5131 |
|---|---|
| Flight time | 1h 14m |
| Altitude | 34000 |
| Route | PEI3G PEI W3 RNG UW26 MRN UW3 VOVLU DCT LOLUD LOLUD1A |
| Aircraft | A321/M-SDE3FGHIRWY/LB1 |
Departure
| Time | 2026-04-22 22:48 |
|---|---|
| Airport | El Eden Airport (SKAR) |
Arrival
| Time | 2026-04-23 00:03 |
|---|---|
| Airport | Ernesto Cortissoz International Airport (SKBQ) |
| Time | Latitude | Longitude | Altitude | Speed | Heading |
|---|---|---|---|---|---|
| 2026-04-22 22:37 | 4.45391 | -75.76719 | 3987 ft | 0 kts | 283° |
| 2026-04-22 22:40 | 4.45388 | -75.76706 | 3986 ft | 4 kts | 293° |
| 2026-04-22 22:41 | 4.45373 | -75.76686 | 3978 ft | 4 kts | 333° |
| 2026-04-22 22:41 | 4.45348 | -75.76681 | 3986 ft | 4 kts | 8° |
| 2026-04-22 22:41 | 4.45333 | -75.76684 | 3986 ft | 0 kts | 13° |
| 2026-04-22 22:44 | 4.45334 | -75.76683 | 3986 ft | 1 kts | 14° |
| 2026-04-22 22:44 | 4.45353 | -75.76669 | 3976 ft | 6 kts | 49° |
| 2026-04-22 22:44 | 4.45387 | -75.76612 | 3984 ft | 12 kts | 57° |
| 2026-04-22 22:44 | 4.45465 | -75.76563 | 3980 ft | 15 kts | 13° |
| 2026-04-22 22:45 | 4.45577 | -75.76533 | 3976 ft | 18 kts | 15° |
| 2026-04-22 22:45 | 4.45699 | -75.76501 | 3987 ft | 18 kts | 13° |
| 2026-04-22 22:45 | 4.45811 | -75.76474 | 3979 ft | 16 kts | 13° |
| 2026-04-22 22:45 | 4.45914 | -75.76450 | 3980 ft | 14 kts | 13° |
| 2026-04-22 22:46 | 4.46009 | -75.76427 | 3982 ft | 14 kts | 14° |
| 2026-04-22 22:46 | 4.46101 | -75.76405 | 3984 ft | 13 kts | 9° |
| 2026-04-22 22:46 | 4.46154 | -75.76419 | 3984 ft | 3 kts | 0° |
| 2026-04-22 22:46 | 4.46164 | -75.76408 | 3984 ft | 1 kts | 66° |
| 2026-04-22 22:47 | 4.46160 | -75.76399 | 3984 ft | 2 kts | 119° |
| 2026-04-22 22:47 | 4.46151 | -75.76398 | 3984 ft | 0 kts | 172° |
| 2026-04-22 22:47 | 4.46137 | -75.76401 | 3984 ft | 9 kts | 190° |
| 2026-04-22 22:47 | 4.45884 | -75.76461 | 3984 ft | 72 kts | 194° |
| 2026-04-22 22:48 | 4.45192 | -75.76630 | 3982 ft | 130 kts | 193° |
| 2026-04-22 22:48 | 4.44176 | -75.76881 | 4068 ft | 165 kts | 194° |
| 2026-04-22 22:48 | 4.43110 | -75.77149 | 4817 ft | 156 kts | 193° |
| 2026-04-22 22:48 | 4.42049 | -75.77399 | 5383 ft | 154 kts | 193° |
| 2026-04-22 22:49 | 4.40987 | -75.77651 | 5700 ft | 164 kts | 193° |
| 2026-04-22 22:49 | 4.39816 | -75.77935 | 5867 ft | 181 kts | 193° |
| 2026-04-22 22:49 | 4.38668 | -75.78543 | 5988 ft | 198 kts | 230° |
| 2026-04-22 22:49 | 4.38190 | -75.79851 | 6256 ft | 207 kts | 264° |
| 2026-04-22 22:50 | 4.37934 | -75.81322 | 6433 ft | 221 kts | 253° |
| 2026-04-22 22:50 | 4.37398 | -75.82815 | 6582 ft | 235 kts | 248° |
| 2026-04-22 22:50 | 4.36751 | -75.84381 | 6692 ft | 253 kts | 248° |
| 2026-04-22 22:50 | 4.36049 | -75.86072 | 6839 ft | 277 kts | 248° |
| 2026-04-22 22:51 | 4.35315 | -75.87904 | 7261 ft | 288 kts | 249° |
| 2026-04-22 22:51 | 4.34589 | -75.89784 | 7928 ft | 286 kts | 250° |
| 2026-04-22 22:51 | 4.34050 | -75.91625 | 8987 ft | 274 kts | 260° |
| 2026-04-22 22:51 | 4.33711 | -75.93576 | 9153 ft | 293 kts | 262° |
| 2026-04-22 22:52 | 4.33393 | -75.95627 | 9590 ft | 301 kts | 262° |
| 2026-04-22 22:52 | 4.33081 | -75.97716 | 10167 ft | 304 kts | 262° |
| 2026-04-22 22:52 | 4.32772 | -75.99813 | 10786 ft | 305 kts | 262° |
| 2026-04-22 22:52 | 4.32458 | -76.01918 | 11423 ft | 306 kts | 262° |
| 2026-04-22 22:53 | 4.32138 | -76.04030 | 12053 ft | 307 kts | 262° |
| 2026-04-22 22:53 | 4.31827 | -76.06128 | 12693 ft | 309 kts | 264° |
| 2026-04-22 22:53 | 4.31964 | -76.08266 | 13275 ft | 311 kts | 286° |
| 2026-04-22 22:53 | 4.32923 | -76.10198 | 13837 ft | 314 kts | 309° |
| 2026-04-22 22:54 | 4.34584 | -76.11614 | 14386 ft | 317 kts | 332° |
| 2026-04-22 22:54 | 4.36667 | -76.12364 | 14935 ft | 321 kts | 343° |
| 2026-04-22 22:54 | 4.38826 | -76.12976 | 15491 ft | 324 kts | 343° |
| 2026-04-22 22:54 | 4.41000 | -76.13591 | 16032 ft | 327 kts | 343° |
| 2026-04-22 22:55 | 4.43208 | -76.14179 | 16562 ft | 330 kts | 349° |
| 2026-04-22 22:55 | 4.45504 | -76.14278 | 17068 ft | 333 kts | 6° |
| 2026-04-22 22:55 | 4.49824 | -76.12431 | 17589 ft | 357 kts | 42° |
| 2026-04-22 22:56 | 4.51610 | -76.10637 | 17727 ft | 371 kts | 46° |
| 2026-04-22 22:56 | 4.53449 | -76.08742 | 17858 ft | 384 kts | 45° |
| 2026-04-22 22:56 | 4.55323 | -76.06825 | 18186 ft | 391 kts | 45° |
| 2026-04-22 22:56 | 4.57242 | -76.04872 | 18626 ft | 395 kts | 45° |
| 2026-04-22 22:57 | 4.59178 | -76.02905 | 19055 ft | 398 kts | 45° |
| 2026-04-22 22:57 | 4.61139 | -76.00915 | 19493 ft | 401 kts | 45° |
| 2026-04-22 22:57 | 4.63090 | -75.98937 | 19902 ft | 404 kts | 45° |
| 2026-04-22 22:57 | 4.65071 | -75.96925 | 20306 ft | 406 kts | 45° |
| 2026-04-22 22:58 | 4.67065 | -75.94896 | 20692 ft | 409 kts | 45° |
| 2026-04-22 22:58 | 4.69083 | -75.92845 | 21083 ft | 411 kts | 45° |
| 2026-04-22 22:58 | 4.71072 | -75.90825 | 21452 ft | 414 kts | 45° |
| 2026-04-22 22:58 | 4.73108 | -75.88757 | 21810 ft | 416 kts | 45° |
| 2026-04-22 22:59 | 4.75136 | -75.86700 | 22161 ft | 418 kts | 45° |
| 2026-04-22 22:59 | 4.77300 | -75.84755 | 22484 ft | 419 kts | 36° |
| 2026-04-22 22:59 | 4.79780 | -75.83202 | 22799 ft | 421 kts | 25° |
| 2026-04-22 22:59 | 4.82494 | -75.82100 | 23125 ft | 422 kts | 18° |
| 2026-04-22 23:00 | 4.85304 | -75.81126 | 23462 ft | 424 kts | 18° |
| 2026-04-22 23:00 | 4.88105 | -75.80149 | 23775 ft | 427 kts | 18° |
| 2026-04-22 23:00 | 4.90901 | -75.79174 | 24085 ft | 429 kts | 18° |
| 2026-04-22 23:00 | 4.93726 | -75.78189 | 24395 ft | 431 kts | 18° |
| 2026-04-22 23:01 | 4.96542 | -75.77206 | 24706 ft | 432 kts | 18° |
| 2026-04-22 23:01 | 4.99400 | -75.76207 | 25018 ft | 435 kts | 18° |
| 2026-04-22 23:01 | 5.02255 | -75.75208 | 25328 ft | 436 kts | 18° |
| 2026-04-22 23:01 | 5.05115 | -75.74208 | 25629 ft | 438 kts | 19° |
| 2026-04-22 23:02 | 5.08000 | -75.73200 | 25937 ft | 440 kts | 19° |
| 2026-04-22 23:02 | 5.10890 | -75.72188 | 26208 ft | 443 kts | 19° |
| 2026-04-22 23:02 | 5.13825 | -75.71161 | 26505 ft | 444 kts | 19° |
| 2026-04-22 23:02 | 5.16756 | -75.70135 | 26800 ft | 446 kts | 19° |
| 2026-04-22 23:03 | 5.19667 | -75.69117 | 27082 ft | 447 kts | 19° |
| 2026-04-22 23:03 | 5.22605 | -75.68094 | 27368 ft | 449 kts | 19° |
| 2026-04-22 23:03 | 5.25579 | -75.67057 | 27652 ft | 450 kts | 19° |
| 2026-04-22 23:03 | 5.28523 | -75.66033 | 27936 ft | 452 kts | 19° |
| 2026-04-22 23:04 | 5.31518 | -75.64990 | 28214 ft | 453 kts | 19° |
| 2026-04-22 23:04 | 5.34492 | -75.63954 | 28474 ft | 455 kts | 19° |
| 2026-04-22 23:04 | 5.37495 | -75.62909 | 28741 ft | 457 kts | 19° |
| 2026-04-22 23:04 | 5.40471 | -75.61873 | 28987 ft | 458 kts | 19° |
| 2026-04-22 23:05 | 5.43520 | -75.60810 | 29233 ft | 460 kts | 19° |
| 2026-04-22 23:05 | 5.46532 | -75.59759 | 29481 ft | 462 kts | 19° |
| 2026-04-22 23:05 | 5.49585 | -75.58695 | 29726 ft | 463 kts | 19° |
| 2026-04-22 23:05 | 5.52634 | -75.57636 | 29962 ft | 465 kts | 19° |
| 2026-04-22 23:06 | 5.55688 | -75.56576 | 30203 ft | 466 kts | 19° |
| 2026-04-22 23:06 | 5.58765 | -75.55507 | 30433 ft | 468 kts | 19° |
| 2026-04-22 23:06 | 5.61828 | -75.54441 | 30645 ft | 470 kts | 19° |
| 2026-04-22 23:06 | 5.64907 | -75.53371 | 30845 ft | 472 kts | 20° |
| 2026-04-22 23:07 | 5.68005 | -75.52295 | 31068 ft | 474 kts | 20° |
| 2026-04-22 23:07 | 5.71148 | -75.51201 | 31387 ft | 473 kts | 20° |
| 2026-04-22 23:07 | 5.74243 | -75.50123 | 31699 ft | 473 kts | 20° |
| 2026-04-22 23:07 | 5.77356 | -75.49040 | 31998 ft | 473 kts | 20° |
| 2026-04-22 23:08 | 5.80465 | -75.47957 | 32289 ft | 473 kts | 20° |
| 2026-04-22 23:08 | 5.83535 | -75.46888 | 32584 ft | 473 kts | 20° |
| 2026-04-22 23:08 | 5.86648 | -75.45808 | 32871 ft | 474 kts | 20° |
| 2026-04-22 23:08 | 5.89769 | -75.44724 | 33161 ft | 474 kts | 21° |
| 2026-04-22 23:09 | 5.92881 | -75.43642 | 33464 ft | 473 kts | 21° |
| 2026-04-22 23:09 | 5.95991 | -75.42557 | 33752 ft | 473 kts | 21° |
| 2026-04-22 23:09 | 5.98039 | -75.41808 | 33952 ft | 472 kts | 25° |
| 2026-04-22 23:09 | 6.01008 | -75.40418 | 34166 ft | 472 kts | 28° |
| 2026-04-22 23:10 | 6.06876 | -75.37582 | 34267 ft | 462 kts | 28° |
| 2026-04-22 23:10 | 6.12640 | -75.34800 | 34270 ft | 459 kts | 28° |
| 2026-04-22 23:11 | 6.18549 | -75.32360 | 34275 ft | 462 kts | 16° |
| 2026-04-22 23:11 | 6.24904 | -75.31285 | 34256 ft | 463 kts | 10° |
| 2026-04-22 23:12 | 6.31279 | -75.30318 | 34263 ft | 463 kts | 11° |
| 2026-04-22 23:12 | 6.37617 | -75.29346 | 34259 ft | 464 kts | 11° |
| 2026-04-22 23:13 | 6.44007 | -75.28366 | 34257 ft | 464 kts | 11° |
| 2026-04-22 23:13 | 6.50362 | -75.27394 | 34245 ft | 464 kts | 11° |
| 2026-04-22 23:14 | 6.56730 | -75.26424 | 34233 ft | 463 kts | 11° |
| 2026-04-22 23:14 | 6.63103 | -75.25459 | 34213 ft | 464 kts | 11° |
| 2026-04-22 23:15 | 6.69513 | -75.24483 | 34197 ft | 464 kts | 11° |
| 2026-04-22 23:15 | 6.75864 | -75.23511 | 34182 ft | 464 kts | 11° |
| 2026-04-22 23:16 | 6.82271 | -75.22527 | 34166 ft | 464 kts | 11° |
| 2026-04-22 23:16 | 6.88648 | -75.21545 | 34150 ft | 464 kts | 11° |
| 2026-04-22 23:17 | 6.95034 | -75.20574 | 34133 ft | 464 kts | 11° |
| 2026-04-22 23:17 | 7.01391 | -75.19611 | 34117 ft | 464 kts | 11° |
| 2026-04-22 23:18 | 7.07782 | -75.18635 | 34106 ft | 464 kts | 11° |
| 2026-04-22 23:18 | 7.14175 | -75.17668 | 34091 ft | 464 kts | 10° |
| 2026-04-22 23:19 | 7.20520 | -75.16713 | 34081 ft | 464 kts | 11° |
| 2026-04-22 23:19 | 7.26910 | -75.15741 | 34070 ft | 464 kts | 11° |
| 2026-04-22 23:20 | 7.33305 | -75.14767 | 34060 ft | 464 kts | 10° |
| 2026-04-22 23:20 | 7.39712 | -75.13793 | 34048 ft | 465 kts | 10° |
| 2026-04-22 23:21 | 7.46073 | -75.12830 | 33991 ft | 465 kts | 10° |
| 2026-04-22 23:21 | 7.52484 | -75.11865 | 33977 ft | 464 kts | 10° |
| 2026-04-22 23:22 | 7.58873 | -75.10906 | 33974 ft | 465 kts | 10° |
| 2026-04-22 23:22 | 7.65282 | -75.09936 | 33967 ft | 465 kts | 10° |
| 2026-04-22 23:23 | 7.71632 | -75.08992 | 33956 ft | 465 kts | 7° |
| 2026-04-22 23:23 | 7.78104 | -75.08581 | 33948 ft | 466 kts | 5° |
| 2026-04-22 23:24 | 7.84590 | -75.08190 | 33911 ft | 467 kts | 5° |
| 2026-04-22 23:24 | 7.91074 | -75.07807 | 33883 ft | 466 kts | 5° |
| 2026-04-22 23:25 | 7.97534 | -75.07428 | 33878 ft | 465 kts | 5° |
| 2026-04-22 23:25 | 8.03980 | -75.07043 | 33877 ft | 466 kts | 5° |
| 2026-04-22 23:26 | 8.10459 | -75.06646 | 33881 ft | 465 kts | 5° |
| 2026-04-22 23:26 | 8.16928 | -75.06255 | 33881 ft | 466 kts | 5° |
| 2026-04-22 23:27 | 8.23398 | -75.05869 | 33883 ft | 465 kts | 5° |
| 2026-04-22 23:27 | 8.29840 | -75.05495 | 33881 ft | 465 kts | 5° |
| 2026-04-22 23:28 | 8.36261 | -75.05115 | 33877 ft | 464 kts | 5° |
| 2026-04-22 23:28 | 8.42742 | -75.04717 | 33876 ft | 464 kts | 5° |
| 2026-04-22 23:29 | 8.49186 | -75.04327 | 33876 ft | 464 kts | 4° |
| 2026-04-22 23:29 | 8.55617 | -75.03950 | 33878 ft | 464 kts | 4° |
| 2026-04-22 23:30 | 8.62077 | -75.03565 | 33879 ft | 464 kts | 4° |
| 2026-04-22 23:30 | 8.68504 | -75.03179 | 33881 ft | 464 kts | 4° |
| 2026-04-22 23:31 | 8.74968 | -75.02793 | 33883 ft | 464 kts | 4° |
| 2026-04-22 23:31 | 8.81406 | -75.02406 | 33885 ft | 464 kts | 4° |
| 2026-04-22 23:32 | 8.87841 | -75.02017 | 33888 ft | 464 kts | 4° |
| 2026-04-22 23:32 | 8.94292 | -75.01629 | 33891 ft | 464 kts | 4° |
| 2026-04-22 23:33 | 9.00798 | -75.01243 | 33888 ft | 474 kts | 4° |
| 2026-04-22 23:33 | 9.07360 | -75.00852 | 33886 ft | 476 kts | 4° |
| 2026-04-22 23:34 | 9.13976 | -75.00456 | 33888 ft | 477 kts | 4° |
| 2026-04-22 23:34 | 9.20592 | -75.00057 | 33888 ft | 476 kts | 4° |
| 2026-04-22 23:35 | 9.27211 | -74.99659 | 33891 ft | 476 kts | 4° |
| 2026-04-22 23:35 | 9.33826 | -74.99261 | 33897 ft | 476 kts | 4° |
| 2026-04-22 23:36 | 9.40441 | -74.98860 | 33900 ft | 476 kts | 4° |
| 2026-04-22 23:36 | 9.47055 | -74.98463 | 33896 ft | 476 kts | 4° |
| 2026-04-22 23:37 | 9.53667 | -74.98068 | 33898 ft | 476 kts | 4° |
| 2026-04-22 23:37 | 9.60259 | -74.97679 | 33894 ft | 473 kts | 4° |
| 2026-04-22 23:38 | 9.63510 | -74.97487 | 33649 ft | 465 kts | 4° |
| 2026-04-22 23:38 | 9.66731 | -74.97293 | 33116 ft | 461 kts | 4° |
| 2026-04-22 23:38 | 9.69932 | -74.97097 | 32491 ft | 461 kts | 4° |
| 2026-04-22 23:38 | 9.73097 | -74.96903 | 31923 ft | 458 kts | 3° |
| 2026-04-22 23:39 | 9.76265 | -74.96709 | 31460 ft | 454 kts | 3° |
| 2026-04-22 23:39 | 9.79407 | -74.96516 | 30990 ft | 449 kts | 3° |
| 2026-04-22 23:39 | 9.82514 | -74.96327 | 30505 ft | 445 kts | 3° |
| 2026-04-22 23:39 | 9.85587 | -74.96142 | 30017 ft | 440 kts | 3° |
| 2026-04-22 23:40 | 9.88632 | -74.95959 | 29524 ft | 437 kts | 3° |
| 2026-04-22 23:40 | 9.91652 | -74.95779 | 29021 ft | 433 kts | 3° |
| 2026-04-22 23:40 | 9.94614 | -74.95603 | 28517 ft | 430 kts | 3° |
| 2026-04-22 23:40 | 9.97588 | -74.95425 | 28002 ft | 427 kts | 3° |
| 2026-04-22 23:41 | 10.00542 | -74.95247 | 27489 ft | 423 kts | 3° |
| 2026-04-22 23:41 | 10.03475 | -74.95069 | 26968 ft | 420 kts | 3° |
| 2026-04-22 23:41 | 10.06385 | -74.94891 | 26445 ft | 417 kts | 3° |
| 2026-04-22 23:41 | 10.09272 | -74.94713 | 25930 ft | 414 kts | 3° |
| 2026-04-22 23:42 | 10.12139 | -74.94538 | 25421 ft | 411 kts | 3° |
| 2026-04-22 23:42 | 10.14984 | -74.94369 | 24918 ft | 408 kts | 3° |
| 2026-04-22 23:42 | 10.17786 | -74.94204 | 24407 ft | 405 kts | 3° |
| 2026-04-22 23:42 | 10.20594 | -74.94037 | 23893 ft | 402 kts | 3° |
| 2026-04-22 23:43 | 10.23359 | -74.93868 | 23388 ft | 399 kts | 3° |
| 2026-04-22 23:43 | 10.26141 | -74.93697 | 22891 ft | 396 kts | 3° |
| 2026-04-22 23:43 | 10.28872 | -74.93529 | 22396 ft | 392 kts | 3° |
| 2026-04-22 23:43 | 10.31580 | -74.93364 | 21911 ft | 389 kts | 3° |
| 2026-04-22 23:44 | 10.34253 | -74.93203 | 21421 ft | 386 kts | 3° |
| 2026-04-22 23:44 | 10.36921 | -74.93043 | 20957 ft | 383 kts | 3° |
| 2026-04-22 23:44 | 10.39573 | -74.92883 | 20500 ft | 380 kts | 3° |
| 2026-04-22 23:44 | 10.42218 | -74.92721 | 20040 ft | 377 kts | 3° |
| 2026-04-22 23:45 | 10.44802 | -74.92565 | 19584 ft | 374 kts | 3° |
| 2026-04-22 23:45 | 10.47393 | -74.92410 | 19132 ft | 371 kts | 3° |
| 2026-04-22 23:45 | 10.49962 | -74.92255 | 18679 ft | 369 kts | 3° |
| 2026-04-22 23:45 | 10.52518 | -74.92100 | 18229 ft | 366 kts | 3° |
| 2026-04-22 23:46 | 10.55056 | -74.91948 | 17783 ft | 363 kts | 3° |
| 2026-04-22 23:46 | 10.57570 | -74.91790 | 17360 ft | 359 kts | 5° |
| 2026-04-22 23:46 | 10.59950 | -74.91214 | 17227 ft | 347 kts | 24° |
| 2026-04-22 23:46 | 10.61954 | -74.89959 | 17104 ft | 334 kts | 42° |
| 2026-04-22 23:47 | 10.63430 | -74.88195 | 16959 ft | 322 kts | 60° |
| 2026-04-22 23:47 | 10.64277 | -74.86171 | 16848 ft | 310 kts | 77° |
| 2026-04-22 23:47 | 10.64516 | -74.84039 | 16722 ft | 299 kts | 93° |
| 2026-04-22 23:47 | 10.64209 | -74.81997 | 16234 ft | 292 kts | 108° |
| 2026-04-22 23:48 | 10.63351 | -74.80137 | 15814 ft | 288 kts | 125° |
| 2026-04-22 23:48 | 10.62079 | -74.78605 | 15590 ft | 280 kts | 139° |
| 2026-04-22 23:48 | 10.60491 | -74.77472 | 15257 ft | 278 kts | 154° |
| 2026-04-22 23:48 | 10.58687 | -74.76805 | 14915 ft | 276 kts | 169° |
| 2026-04-22 23:49 | 10.56791 | -74.76596 | 14559 ft | 274 kts | 179° |
| 2026-04-22 23:49 | 10.54887 | -74.76619 | 14205 ft | 273 kts | 183° |
| 2026-04-22 23:49 | 10.52994 | -74.76732 | 13871 ft | 273 kts | 184° |
| 2026-04-22 23:49 | 10.51133 | -74.76871 | 13554 ft | 271 kts | 185° |
| 2026-04-22 23:50 | 10.49257 | -74.77014 | 13229 ft | 270 kts | 185° |
| 2026-04-22 23:50 | 10.47389 | -74.77148 | 12901 ft | 268 kts | 184° |
| 2026-04-22 23:50 | 10.45539 | -74.77363 | 12563 ft | 266 kts | 194° |
| 2026-04-22 23:50 | 10.43798 | -74.77965 | 12227 ft | 264 kts | 207° |
| 2026-04-22 23:51 | 10.42259 | -74.78960 | 11776 ft | 261 kts | 221° |
| 2026-04-22 23:51 | 10.41018 | -74.80294 | 11275 ft | 260 kts | 235° |
| 2026-04-22 23:51 | 10.40136 | -74.81885 | 10776 ft | 258 kts | 249° |
| 2026-04-22 23:51 | 10.39654 | -74.83630 | 10278 ft | 257 kts | 262° |
| 2026-04-22 23:52 | 10.39594 | -74.85432 | 9787 ft | 255 kts | 276° |
| 2026-04-22 23:52 | 10.39950 | -74.87188 | 9297 ft | 254 kts | 289° |
| 2026-04-22 23:52 | 10.40693 | -74.88807 | 8812 ft | 253 kts | 303° |
| 2026-04-22 23:52 | 10.41775 | -74.90199 | 8290 ft | 250 kts | 316° |
| 2026-04-22 23:53 | 10.43136 | -74.91285 | 7726 ft | 248 kts | 330° |
| 2026-04-22 23:53 | 10.44692 | -74.92017 | 7168 ft | 246 kts | 342° |
| 2026-04-22 23:53 | 10.46360 | -74.92370 | 6622 ft | 244 kts | 356° |
| 2026-04-22 23:53 | 10.48050 | -74.92421 | 6082 ft | 242 kts | 1° |
| 2026-04-22 23:54 | 10.49706 | -74.92348 | 5559 ft | 240 kts | 4° |
| 2026-04-22 23:54 | 10.51405 | -74.92238 | 4784 ft | 253 kts | 3° |
| 2026-04-22 23:54 | 10.53226 | -74.92121 | 4175 ft | 273 kts | 3° |
| 2026-04-22 23:54 | 10.55188 | -74.91996 | 3999 ft | 284 kts | 4° |
| 2026-04-22 23:55 | 10.57114 | -74.91871 | 3848 ft | 271 kts | 4° |
| 2026-04-22 23:55 | 10.58954 | -74.91751 | 3724 ft | 259 kts | 4° |
| 2026-04-22 23:55 | 10.60722 | -74.91639 | 3595 ft | 249 kts | 4° |
| 2026-04-22 23:55 | 10.62414 | -74.91529 | 3469 ft | 239 kts | 4° |
| 2026-04-22 23:56 | 10.64016 | -74.91426 | 3343 ft | 230 kts | 3° |
| 2026-04-22 23:56 | 10.65608 | -74.91328 | 3227 ft | 226 kts | 3° |
| 2026-04-22 23:56 | 10.67129 | -74.91235 | 3123 ft | 213 kts | 4° |
| 2026-04-22 23:56 | 10.68586 | -74.91143 | 3035 ft | 205 kts | 4° |
| 2026-04-22 23:57 | 10.69939 | -74.91055 | 3002 ft | 184 kts | 4° |
| 2026-04-22 23:57 | 10.71152 | -74.90977 | 2989 ft | 167 kts | 4° |
| 2026-04-22 23:57 | 10.72282 | -74.90904 | 3017 ft | 158 kts | 4° |
| 2026-04-22 23:57 | 10.73359 | -74.90807 | 2998 ft | 153 kts | 11° |
| 2026-04-22 23:58 | 10.74363 | -74.90459 | 2998 ft | 152 kts | 26° |
| 2026-04-22 23:58 | 10.75230 | -74.89848 | 3001 ft | 152 kts | 40° |
| 2026-04-22 23:58 | 10.76038 | -74.89153 | 2990 ft | 152 kts | 39° |
| 2026-04-22 23:58 | 10.76851 | -74.88461 | 2869 ft | 152 kts | 39° |
| 2026-04-22 23:59 | 10.77647 | -74.87780 | 2698 ft | 150 kts | 39° |
| 2026-04-22 23:59 | 10.78446 | -74.87097 | 2515 ft | 149 kts | 39° |
| 2026-04-22 23:59 | 10.79240 | -74.86416 | 2321 ft | 149 kts | 40° |
| 2026-04-22 23:59 | 10.80027 | -74.85742 | 2127 ft | 148 kts | 39° |
| 2026-04-23 00:00 | 10.81593 | -74.84400 | 1733 ft | 147 kts | 39° |
| 2026-04-23 00:00 | 10.82107 | -74.83960 | 1609 ft | 145 kts | 39° |
| 2026-04-23 00:00 | 10.83139 | -74.83077 | 1352 ft | 144 kts | 39° |
| 2026-04-23 00:01 | 10.83906 | -74.82420 | 1161 ft | 144 kts | 40° |
| 2026-04-23 00:01 | 10.84671 | -74.81764 | 968 ft | 144 kts | 39° |
| 2026-04-23 00:01 | 10.85426 | -74.81117 | 781 ft | 144 kts | 40° |
| 2026-04-23 00:01 | 10.86192 | -74.80461 | 590 ft | 144 kts | 38° |
| 2026-04-23 00:02 | 10.86960 | -74.79803 | 396 ft | 145 kts | 38° |
| 2026-04-23 00:02 | 10.87734 | -74.79140 | 205 ft | 145 kts | 39° |
| 2026-04-23 00:02 | 10.88484 | -74.78496 | 94 ft | 132 kts | 40° |
| 2026-04-23 00:02 | 10.89031 | -74.78026 | 82 ft | 76 kts | 39° |
| 2026-04-23 00:03 | 10.89306 | -74.77791 | 76 ft | 31 kts | 40° |
| 2026-04-23 00:03 | 10.89386 | -74.77629 | 73 ft | 22 kts | 90° |
| 2026-04-23 00:03 | 10.89336 | -74.77531 | 73 ft | 16 kts | 156° |
| 2026-04-23 00:03 | 10.89234 | -74.77509 | 66 ft | 14 kts | 164° |
| 2026-04-23 00:04 | 10.89143 | -74.77487 | 75 ft | 13 kts | 183° |
| 2026-04-23 00:04 | 10.89077 | -74.77531 | 76 ft | 11 kts | 220° |
| 2026-04-23 00:04 | 10.89026 | -74.77573 | 77 ft | 8 kts | 218° |
| 2026-04-23 00:04 | 10.88985 | -74.77606 | 78 ft | 6 kts | 219° |
| 2026-04-23 00:05 | 10.88957 | -74.77630 | 71 ft | 4 kts | 220° |
| 2026-04-23 00:05 | 10.88925 | -74.77658 | 79 ft | 9 kts | 221° |
| 2026-04-23 00:05 | 10.88873 | -74.77704 | 85 ft | 10 kts | 220° |
| 2026-04-23 00:05 | 10.88832 | -74.77739 | 81 ft | 5 kts | 219° |
| 2026-04-23 00:06 | 10.88810 | -74.77757 | 85 ft | 4 kts | 220° |
| 2026-04-23 00:06 | 10.88789 | -74.77776 | 83 ft | 8 kts | 221° |
| 2026-04-23 00:06 | 10.88731 | -74.77799 | 84 ft | 5 kts | 160° |
| 2026-04-23 00:06 | 10.88709 | -74.77786 | 85 ft | 5 kts | 158° |
| 2026-04-23 00:07 | 10.88678 | -74.77792 | 86 ft | 7 kts | 205° |
| 2026-04-23 00:07 | 10.88618 | -74.77838 | 85 ft | 5 kts | 202° |
| 2026-04-23 00:07 | 10.88602 | -74.77835 | 85 ft | 2 kts | 155° |
| 2026-04-23 00:07 | 10.88591 | -74.77821 | 87 ft | 3 kts | 126° |
| 2026-04-23 00:08 | 10.88581 | -74.77808 | 85 ft | 1 kts | 129° |
| 2026-04-23 00:08 | 10.88579 | -74.77806 | 85 ft | 0 kts | 129° |
| 2026-04-23 00:08 | 10.88578 | -74.77804 | 85 ft | 0 kts | 130° |